sensor_id;sensor_type;location;lat;lon;timestamp;pressure;altitude;pressure_sealevel;temperature;humidity
82784;BME280;72520;55.762;37.780;2024-02-16T00:01:45;101713.13;;;-8.42;70.85
82784;BME280;72520;55.762;37.780;2024-02-16T00:04:52;101708.84;;;-8.42;70.56
82784;BME280;72520;55.762;37.780;2024-02-16T00:07:57;101704.03;;;-8.53;70.76
82784;BME280;72520;55.762;37.780;2024-02-16T00:10:59;101706.75;;;-8.50;70.88
82784;BME280;72520;55.762;37.780;2024-02-16T00:14:01;101703.56;;;-8.45;70.87
82784;BME280;72520;55.762;37.780;2024-02-16T00:17:04;101711.09;;;-8.49;70.60
82784;BME280;72520;55.762;37.780;2024-02-16T00:20:12;101707.63;;;-8.50;69.85
82784;BME280;72520;55.762;37.780;2024-02-16T00:23:14;101702.44;;;-8.31;69.91
82784;BME280;72520;55.762;37.780;2024-02-16T00:26:16;101707.91;;;-8.44;69.91
82784;BME280;72520;55.762;37.780;2024-02-16T00:29:18;101704.03;;;-8.53;70.29
82784;BME280;72520;55.762;37.780;2024-02-16T00:32:21;101704.31;;;-8.68;70.64
82784;BME280;72520;55.762;37.780;2024-02-16T00:35:26;101705.94;;;-8.70;71.36
82784;BME280;72520;55.762;37.780;2024-02-16T00:38:29;101701.41;;;-8.75;71.35
82784;BME280;72520;55.762;37.780;2024-02-16T00:41:31;101696.13;;;-8.79;71.83
82784;BME280;72520;55.762;37.780;2024-02-16T00:44:33;101696.44;;;-8.71;71.67
82784;BME280;72520;55.762;37.780;2024-02-16T00:47:37;101692.00;;;-8.73;71.17
82784;BME280;72520;55.762;37.780;2024-02-16T00:50:46;101686.69;;;-8.78;71.56
82784;BME280;72520;55.762;37.780;2024-02-16T00:53:50;101672.59;;;-8.65;71.28
82784;BME280;72520;55.762;37.780;2024-02-16T00:56:53;101678.09;;;-8.77;71.20
82784;BME280;72520;55.762;37.780;2024-02-16T00:59:56;101681.78;;;-8.72;71.27
82784;BME280;72520;55.762;37.780;2024-02-16T01:03:00;101670.78;;;-8.68;71.02
82784;BME280;72520;55.762;37.780;2024-02-16T01:06:04;101680.53;;;-8.61;70.76
82784;BME280;72520;55.762;37.780;2024-02-16T01:09:07;101680.38;;;-8.64;70.87
82784;BME280;72520;55.762;37.780;2024-02-16T01:12:15;101679.19;;;-8.72;71.67
82784;BME280;72520;55.762;37.780;2024-02-16T01:15:17;101693.88;;;-8.71;71.44
82784;BME280;72520;55.762;37.780;2024-02-16T01:18:19;101690.31;;;-8.73;71.33
82784;BME280;72520;55.762;37.780;2024-02-16T01:21:22;101693.91;;;-8.69;71.50
82784;BME280;72520;55.762;37.780;2024-02-16T01:24:27;101689.06;;;-8.62;71.00
82784;BME280;72520;55.762;37.780;2024-02-16T01:27:29;101681.25;;;-8.63;70.69
82784;BME280;72520;55.762;37.780;2024-02-16T01:30:32;101687.06;;;-8.69;70.81
82784;BME280;72520;55.762;37.780;2024-02-16T01:33:34;101683.91;;;-8.83;71.08
82784;BME280;72520;55.762;37.780;2024-02-16T01:36:38;101696.16;;;-8.77;71.45
82784;BME280;72520;55.762;37.780;2024-02-16T01:39:40;101694.13;;;-8.65;70.76
82784;BME280;72520;55.762;37.780;2024-02-16T01:42:47;101678.50;;;-8.47;70.53
82784;BME280;72520;55.762;37.780;2024-02-16T01:45:49;101670.25;;;-8.59;69.90
82784;BME280;72520;55.762;37.780;2024-02-16T01:48:51;101675.22;;;-8.64;70.17
82784;BME280;72520;55.762;37.780;2024-02-16T01:51:57;101681.66;;;-8.75;70.68
82784;BME280;72520;55.762;37.780;2024-02-16T01:54:59;101677.06;;;-8.61;70.77
82784;BME280;72520;55.762;37.780;2024-02-16T01:58:04;101667.31;;;-8.68;70.97
82784;BME280;72520;55.762;37.780;2024-02-16T02:01:09;101673.38;;;-8.03;68.91
82784;BME280;72520;55.762;37.780;2024-02-16T02:04:11;101665.78;;;-8.20;69.54
82784;BME280;72520;55.762;37.780;2024-02-16T02:07:18;101666.47;;;-8.47;70.02
82784;BME280;72520;55.762;37.780;2024-02-16T02:10:22;101671.25;;;-8.56;70.21
82784;BME280;72520;55.762;37.780;2024-02-16T02:13:26;101661.13;;;-8.51;70.58
82784;BME280;72520;55.762;37.780;2024-02-16T02:16:28;101665.03;;;-8.61;70.58
82784;BME280;72520;55.762;37.780;2024-02-16T02:19:34;101661.81;;;-8.55;70.46
82784;BME280;72520;55.762;37.780;2024-02-16T02:22:43;101675.28;;;-8.62;70.08
82784;BME280;72520;55.762;37.780;2024-02-16T02:25:45;101680.75;;;-8.75;70.19
82784;BME280;72520;55.762;37.780;2024-02-16T02:28:48;101670.38;;;-8.77;70.34
82784;BME280;72520;55.762;37.780;2024-02-16T02:31:51;101668.19;;;-8.68;70.14
82784;BME280;72520;55.762;37.780;2024-02-16T02:34:55;101675.22;;;-8.64;70.28
82784;BME280;72520;55.762;37.780;2024-02-16T02:37:59;101669.50;;;-8.57;69.87
82784;BME280;72520;55.762;37.780;2024-02-16T02:41:04;101674.53;;;-8.60;70.11
82784;BME280;72520;55.762;37.780;2024-02-16T02:44:06;101672.38;;;-8.70;70.33
82784;BME280;72520;55.762;37.780;2024-02-16T02:47:08;101672.22;;;-8.74;70.61
82784;BME280;72520;55.762;37.780;2024-02-16T02:50:16;101671.50;;;-8.70;70.90
82784;BME280;72520;55.762;37.780;2024-02-16T02:53:22;101672.47;;;-8.68;70.56
82784;BME280;72520;55.762;37.780;2024-02-16T02:56:27;101687.88;;;-8.70;70.97
82784;BME280;72520;55.762;37.780;2024-02-16T02:59:31;101685.16;;;-8.73;70.64
82784;BME280;72520;55.762;37.780;2024-02-16T03:02:34;101682.47;;;-8.76;70.66
82784;BME280;72520;55.762;37.780;2024-02-16T03:05:36;101681.91;;;-8.69;70.59
82784;BME280;72520;55.762;37.780;2024-02-16T03:08:42;101673.72;;;-8.59;70.24
82784;BME280;72520;55.762;37.780;2024-02-16T03:11:45;101681.53;;;-8.57;70.05
82784;BME280;72520;55.762;37.780;2024-02-16T03:14:47;101684.47;;;-8.69;70.22
82784;BME280;72520;55.762;37.780;2024-02-16T03:17:50;101680.38;;;-8.64;70.04
82784;BME280;72520;55.762;37.780;2024-02-16T03:20:52;101679.13;;;-8.53;69.84
82784;BME280;72520;55.762;37.780;2024-02-16T03:23:56;101687.44;;;-8.60;69.93
82784;BME280;72520;55.762;37.780;2024-02-16T03:26:58;101700.75;;;-8.70;70.48
82784;BME280;72520;55.762;37.780;2024-02-16T03:30:01;101694.59;;;-8.53;70.42
82784;BME280;72520;55.762;37.780;2024-02-16T03:33:07;101694.25;;;-8.62;70.65
82784;BME280;72520;55.762;37.780;2024-02-16T03:36:09;101689.44;;;-8.53;70.46
82784;BME280;72520;55.762;37.780;2024-02-16T03:39:17;101703.75;;;-8.61;70.73
82784;BME280;72520;55.762;37.780;2024-02-16T03:42:21;101701.19;;;-8.61;70.76
82784;BME280;72520;55.762;37.780;2024-02-16T03:45:26;101702.91;;;-8.60;69.80
82784;BME280;72520;55.762;37.780;2024-02-16T03:48:29;101711.22;;;-8.67;70.29
82784;BME280;72520;55.762;37.780;2024-02-16T03:51:31;101702.44;;;-8.51;70.22
82784;BME280;72520;55.762;37.780;2024-02-16T03:54:37;101706.06;;;-8.67;70.16
82784;BME280;72520;55.762;37.780;2024-02-16T03:57:45;101703.31;;;-8.71;70.34
82784;BME280;72520;55.762;37.780;2024-02-16T04:00:52;101695.69;;;-8.68;70.82
82784;BME280;72520;55.762;37.780;2024-02-16T04:03:57;101683.91;;;-8.62;70.47
82784;BME280;72520;55.762;37.780;2024-02-16T04:06:59;101682.91;;;-8.65;70.39
82784;BME280;72520;55.762;37.780;2024-02-16T04:10:06;101684.03;;;-8.59;70.37
82784;BME280;72520;55.762;37.780;2024-02-16T04:13:08;101683.72;;;-8.46;70.31
82784;BME280;72520;55.762;37.780;2024-02-16T04:16:10;101683.41;;;-8.53;70.64
82784;BME280;72520;55.762;37.780;2024-02-16T04:19:15;101687.38;;;-8.61;70.84
82784;BME280;72520;55.762;37.780;2024-02-16T04:22:18;101686.50;;;-8.62;70.94
82784;BME280;72520;55.762;37.780;2024-02-16T04:25:22;101689.56;;;-8.70;71.05
82784;BME280;72520;55.762;37.780;2024-02-16T04:28:24;101681.13;;;-8.66;71.57
82784;BME280;72520;55.762;37.780;2024-02-16T04:31:26;101669.81;;;-8.49;70.97
82784;BME280;72520;55.762;37.780;2024-02-16T04:34:28;101678.34;;;-8.30;70.52
82784;BME280;72520;55.762;37.780;2024-02-16T04:37:31;101665.72;;;-8.44;70.74
82784;BME280;72520;55.762;37.780;2024-02-16T04:40:36;101668.34;;;-8.43;70.79
82784;BME280;72520;55.762;37.780;2024-02-16T04:43:45;101669.81;;;-8.49;71.24
82784;BME280;72520;55.762;37.780;2024-02-16T04:46:50;101679.13;;;-8.53;71.13
82784;BME280;72520;55.762;37.780;2024-02-16T04:49:53;101676.97;;;-8.63;71.46
82784;BME280;72520;55.762;37.780;2024-02-16T04:52:55;101682.72;;;-8.70;71.68
82784;BME280;72520;55.762;37.780;2024-02-16T04:55:58;101686.34;;;-8.86;72.14
82784;BME280;72520;55.762;37.780;2024-02-16T04:59:02;101688.16;;;-8.83;72.83
82784;BME280;72520;55.762;37.780;2024-02-16T05:02:07;101675.66;;;-8.74;72.71
82784;BME280;72520;55.762;37.780;2024-02-16T05:05:11;101676.50;;;-8.75;72.39
82784;BME280;72520;55.762;37.780;2024-02-16T05:08:14;101690.44;;;-8.70;72.07
82784;BME280;72520;55.762;37.780;2024-02-16T05:11:22;101679.13;;;-8.73;72.05
82784;BME280;72520;55.762;37.780;2024-02-16T05:14:33;101675.63;;;-8.55;71.89
82784;BME280;72520;55.762;37.780;2024-02-16T05:17:36;101666.66;;;-8.63;71.59
82784;BME280;72520;55.762;37.780;2024-02-16T05:20:38;101660.69;;;-8.62;71.38
82784;BME280;72520;55.762;37.780;2024-02-16T05:23:40;101668.69;;;-8.56;71.54
82784;BME280;72520;55.762;37.780;2024-02-16T05:26:45;101667.78;;;-8.56;71.53
82784;BME280;72520;55.762;37.780;2024-02-16T05:29:47;101659.72;;;-8.64;71.63
82784;BME280;72520;55.762;37.780;2024-02-16T05:32:51;101663.28;;;-8.62;71.50
82784;BME280;72520;55.762;37.780;2024-02-16T05:35:54;101661.75;;;-8.57;71.40
82784;BME280;72520;55.762;37.780;2024-02-16T05:38:59;101664.66;;;-8.70;71.97
82784;BME280;72520;55.762;37.780;2024-02-16T05:42:11;101680.25;;;-8.67;71.55
82784;BME280;72520;55.762;37.780;2024-02-16T05:45:13;101685.63;;;-8.62;71.35
82784;BME280;72520;55.762;37.780;2024-02-16T05:48:18;101686.25;;;-8.47;71.37
82784;BME280;72520;55.762;37.780;2024-02-16T05:51:22;101681.78;;;-8.31;71.04
82784;BME280;72520;55.762;37.780;2024-02-16T05:54:24;101687.88;;;-8.06;70.32
82784;BME280;72520;55.762;37.780;2024-02-16T05:57:28;101691.75;;;-8.17;70.19
82784;BME280;72520;55.762;37.780;2024-02-16T06:00:32;101694.88;;;-8.04;69.89
82784;BME280;72520;55.762;37.780;2024-02-16T06:03:35;101705.41;;;-8.20;69.70
82784;BME280;72520;55.762;37.780;2024-02-16T06:06:37;101705.97;;;-8.27;70.46
82784;BME280;72520;55.762;37.780;2024-02-16T06:09:39;101705.94;;;-8.29;70.43
82784;BME280;72520;55.762;37.780;2024-02-16T06:12:48;101707.91;;;-8.21;71.07
82784;BME280;72520;55.762;37.780;2024-02-16T06:15:52;101709.75;;;-8.19;70.53
82784;BME280;72520;55.762;37.780;2024-02-16T06:18:57;101706.59;;;-8.12;70.43
82784;BME280;72520;55.762;37.780;2024-02-16T06:21:59;101705.56;;;-8.15;69.98
82784;BME280;72520;55.762;37.780;2024-02-16T06:25:02;101718.56;;;-8.14;70.07
82784;BME280;72520;55.762;37.780;2024-02-16T06:28:07;101716.44;;;-8.24;70.45
82784;BME280;72520;55.762;37.780;2024-02-16T06:31:13;101720.59;;;-8.28;70.24
82784;BME280;72520;55.762;37.780;2024-02-16T06:34:16;101716.88;;;-8.13;70.94
82784;BME280;72520;55.762;37.780;2024-02-16T06:37:21;101724.91;;;-8.06;70.53
82784;BME280;72520;55.762;37.780;2024-02-16T06:40:26;101715.97;;;-7.93;69.71
82784;BME280;72520;55.762;37.780;2024-02-16T06:43:30;101711.28;;;-8.02;69.88
82784;BME280;72520;55.762;37.780;2024-02-16T06:46:32;101719.47;;;-7.91;70.38
82784;BME280;72520;55.762;37.780;2024-02-16T06:49:34;101709.91;;;-7.94;70.40
82784;BME280;72520;55.762;37.780;2024-02-16T06:52:37;101711.78;;;-7.90;69.98
82784;BME280;72520;55.762;37.780;2024-02-16T06:55:39;101717.41;;;-8.00;69.77
82784;BME280;72520;55.762;37.780;2024-02-16T06:58:42;101709.00;;;-7.94;69.73
82784;BME280;72520;55.762;37.780;2024-02-16T07:01:47;101707.38;;;-7.92;70.01
82784;BME280;72520;55.762;37.780;2024-02-16T07:04:49;101711.25;;;-7.81;70.09
82784;BME280;72520;55.762;37.780;2024-02-16T07:07:51;101710.38;;;-7.82;69.78
82784;BME280;72520;55.762;37.780;2024-02-16T07:10:56;101709.91;;;-7.72;69.68
82784;BME280;72520;55.762;37.780;2024-02-16T07:14:00;101714.19;;;-7.72;69.36
82784;BME280;72520;55.762;37.780;2024-02-16T07:17:03;101705.91;;;-7.86;69.03
82784;BME280;72520;55.762;37.780;2024-02-16T07:20:08;101701.50;;;-7.66;69.17
82784;BME280;72520;55.762;37.780;2024-02-16T07:23:12;101694.25;;;-7.76;69.26
82784;BME280;72520;55.762;37.780;2024-02-16T07:26:16;101692.19;;;-7.62;68.66
82784;BME280;72520;55.762;37.780;2024-02-16T07:29:21;101692.06;;;-7.65;69.09
82784;BME280;72520;55.762;37.780;2024-02-16T07:32:22;101693.03;;;-7.62;69.22
82784;BME280;72520;55.762;37.780;2024-02-16T07:35:25;101688.63;;;-7.64;69.27
82784;BME280;72520;55.762;37.780;2024-02-16T07:38:27;101685.63;;;-7.53;69.37
82784;BME280;72520;55.762;37.780;2024-02-16T07:41:33;101694.69;;;-7.64;69.51
82784;BME280;72520;55.762;37.780;2024-02-16T07:44:39;101692.91;;;-7.65;69.62
82784;BME280;72520;55.762;37.780;2024-02-16T07:47:45;101698.19;;;-7.62;69.63
82784;BME280;72520;55.762;37.780;2024-02-16T07:50:47;101698.34;;;-7.59;69.03
82784;BME280;72520;55.762;37.780;2024-02-16T07:53:50;101700.75;;;-7.63;69.53
82784;BME280;72520;55.762;37.780;2024-02-16T07:56:53;101706.25;;;-7.54;69.28
82784;BME280;72520;55.762;37.780;2024-02-16T08:00:05;101701.66;;;-7.61;69.04
82784;BME280;72520;55.762;37.780;2024-02-16T08:03:07;101696.59;;;-7.58;69.72
82784;BME280;72520;55.762;37.780;2024-02-16T08:06:11;101699.28;;;-7.57;69.11
82784;BME280;72520;55.762;37.780;2024-02-16T08:09:13;101713.63;;;-7.41;69.63
82784;BME280;72520;55.762;37.780;2024-02-16T08:12:16;101708.66;;;-7.37;69.23
82784;BME280;72520;55.762;37.780;2024-02-16T08:15:23;101732.16;;;-7.07;68.68
82784;BME280;72520;55.762;37.780;2024-02-16T08:18:26;101732.16;;;-7.07;68.18
82784;BME280;72520;55.762;37.780;2024-02-16T08:21:28;101723.66;;;-7.04;67.96
82784;BME280;72520;55.762;37.780;2024-02-16T08:24:32;101733.25;;;-7.24;68.27
82784;BME280;72520;55.762;37.780;2024-02-16T08:27:34;101723.63;;;-7.28;69.00
82784;BME280;72520;55.762;37.780;2024-02-16T08:30:39;101726.38;;;-7.24;69.19
82784;BME280;72520;55.762;37.780;2024-02-16T08:33:42;101725.44;;;-7.26;68.76
82784;BME280;72520;55.762;37.780;2024-02-16T08:36:44;101726.34;;;-7.25;68.93
82784;BME280;72520;55.762;37.780;2024-02-16T08:39:46;101711.63;;;-7.26;69.21
82784;BME280;72520;55.762;37.780;2024-02-16T08:42:48;101706.56;;;-7.23;69.16
82784;BME280;72520;55.762;37.780;2024-02-16T08:45:54;101722.16;;;-6.98;68.79
82784;BME280;72520;55.762;37.780;2024-02-16T08:48:57;101721.06;;;-7.04;68.94
82784;BME280;72520;55.762;37.780;2024-02-16T08:52:02;101723.25;;;-7.15;68.81
82784;BME280;72520;55.762;37.780;2024-02-16T08:55:05;101723.09;;;-7.19;69.22
82784;BME280;72520;55.762;37.780;2024-02-16T08:58:08;101712.72;;;-7.19;69.51
82784;BME280;72520;55.762;37.780;2024-02-16T09:01:12;101723.28;;;-7.13;69.09
82784;BME280;72520;55.762;37.780;2024-02-16T09:04:14;101722.06;;;-7.25;69.82
82784;BME280;72520;55.762;37.780;2024-02-16T09:07:19;101730.56;;;-7.03;69.66
82784;BME280;72520;55.762;37.780;2024-02-16T09:10:23;101724.34;;;-6.85;69.31
82784;BME280;72520;55.762;37.780;2024-02-16T09:13:25;101715.16;;;-7.00;68.70
82784;BME280;72520;55.762;37.780;2024-02-16T09:16:29;101728.16;;;-6.99;68.93
82784;BME280;72520;55.762;37.780;2024-02-16T09:19:34;101732.50;;;-6.98;69.11
82784;BME280;72520;55.762;37.780;2024-02-16T09:22:40;101722.31;;;-6.93;68.81
82784;BME280;72520;55.762;37.780;2024-02-16T09:25:42;101724.56;;;-6.79;68.62
82784;BME280;72520;55.762;37.780;2024-02-16T09:28:48;101722.06;;;-6.76;68.63
82784;BME280;72520;55.762;37.780;2024-02-16T09:31:52;101713.75;;;-6.67;68.29
82784;BME280;72520;55.762;37.780;2024-02-16T09:34:55;101705.44;;;-6.32;67.97
82784;BME280;72520;55.762;37.780;2024-02-16T09:37:59;101707.94;;;-6.35;67.46
82784;BME280;72520;55.762;37.780;2024-02-16T09:41:02;101700.31;;;-6.57;67.19
82784;BME280;72520;55.762;37.780;2024-02-16T09:44:04;101696.75;;;-6.59;67.37
82784;BME280;72520;55.762;37.780;2024-02-16T09:47:09;101680.56;;;-6.53;67.30
82784;BME280;72520;55.762;37.780;2024-02-16T09:50:14;101684.69;;;-6.58;67.73
82784;BME280;72520;55.762;37.780;2024-02-16T09:53:19;101695.06;;;-6.33;67.05
82784;BME280;72520;55.762;37.780;2024-02-16T09:56:23;101683.75;;;-6.08;66.80
82784;BME280;72520;55.762;37.780;2024-02-16T09:59:25;101676.03;;;-6.34;67.09
82784;BME280;72520;55.762;37.780;2024-02-16T10:02:39;101663.75;;;-6.39;67.32
82784;BME280;72520;55.762;37.780;2024-02-16T10:05:43;101658.97;;;-6.54;67.21
82784;BME280;72520;55.762;37.780;2024-02-16T10:08:48;101664.81;;;-6.59;66.83
82784;BME280;72520;55.762;37.780;2024-02-16T10:11:53;101659.78;;;-6.55;67.37
82784;BME280;72520;55.762;37.780;2024-02-16T10:14:57;101664.00;;;-6.58;66.85
82784;BME280;72520;55.762;37.780;2024-02-16T10:18:03;101659.22;;;-6.46;66.92
82784;BME280;72520;55.762;37.780;2024-02-16T10:21:08;101646.91;;;-6.27;66.46
82784;BME280;72520;55.762;37.780;2024-02-16T10:24:13;101653.53;;;-6.36;66.56
82784;BME280;72520;55.762;37.780;2024-02-16T10:27:16;101647.25;;;-6.16;66.05
82784;BME280;72520;55.762;37.780;2024-02-16T10:30:19;101659.16;;;-6.48;67.26
82784;BME280;72520;55.762;37.780;2024-02-16T10:33:23;101655.94;;;-6.41;67.68
82784;BME280;72520;55.762;37.780;2024-02-16T10:36:26;101659.25;;;-6.45;66.93
82784;BME280;72520;55.762;37.780;2024-02-16T10:39:30;101665.59;;;-6.37;67.66
82784;BME280;72520;55.762;37.780;2024-02-16T10:42:35;101654.19;;;-6.42;67.60
82784;BME280;72520;55.762;37.780;2024-02-16T10:45:40;101658.00;;;-6.31;67.11
82784;BME280;72520;55.762;37.780;2024-02-16T10:48:45;101652.22;;;-6.49;67.21
82784;BME280;72520;55.762;37.780;2024-02-16T10:51:47;101659.97;;;-6.50;67.32
82784;BME280;72520;55.762;37.780;2024-02-16T10:54:51;101671.19;;;-6.50;67.18
82784;BME280;72520;55.762;37.780;2024-02-16T10:57:57;101666.56;;;-6.58;68.09
82784;BME280;72520;55.762;37.780;2024-02-16T11:01:07;101664.34;;;-6.48;67.94
82784;BME280;72520;55.762;37.780;2024-02-16T11:04:16;101664.53;;;-6.42;67.70
82784;BME280;72520;55.762;37.780;2024-02-16T11:07:19;101660.72;;;-6.53;67.25
82784;BME280;72520;55.762;37.780;2024-02-16T11:10:21;101657.81;;;-6.37;67.14
82784;BME280;72520;55.762;37.780;2024-02-16T11:13:28;101660.06;;;-6.47;67.40
82784;BME280;72520;55.762;37.780;2024-02-16T11:16:30;101669.47;;;-6.49;67.80
82784;BME280;72520;55.762;37.780;2024-02-16T11:19:35;101660.50;;;-6.59;67.91
82784;BME280;72520;55.762;37.780;2024-02-16T11:22:37;101659.44;;;-6.40;68.02
82784;BME280;72520;55.762;37.780;2024-02-16T11:25:49;101667.84;;;-6.46;66.57
82784;BME280;72520;55.762;37.780;2024-02-16T11:28:51;101656.63;;;-6.46;66.90
82784;BME280;72520;55.762;37.780;2024-02-16T11:31:56;101660.91;;;-6.74;67.35
82784;BME280;72520;55.762;37.780;2024-02-16T11:35:08;101659.16;;;-6.48;67.18
82784;BME280;72520;55.762;37.780;2024-02-16T11:38:11;101661.41;;;-6.32;66.84
82784;BME280;72520;55.762;37.780;2024-02-16T11:41:15;101658.63;;;-6.38;67.33
82784;BME280;72520;55.762;37.780;2024-02-16T11:44:17;101657.81;;;-6.37;67.41
82784;BME280;72520;55.762;37.780;2024-02-16T11:47:20;101655.06;;;-6.14;67.08
82784;BME280;72520;55.762;37.780;2024-02-16T11:50:27;101658.47;;;-6.42;66.58
82784;BME280;72520;55.762;37.780;2024-02-16T11:53:30;101643.53;;;-6.51;67.74
82784;BME280;72520;55.762;37.780;2024-02-16T11:56:33;101648.38;;;-6.35;67.09
82784;BME280;72520;55.762;37.780;2024-02-16T11:59:36;101645.09;;;-6.29;66.71
82784;BME280;72520;55.762;37.780;2024-02-16T12:02:40;101649.78;;;-6.18;67.00
82784;BME280;72520;55.762;37.780;2024-02-16T12:05:51;101646.66;;;-6.07;66.04
82784;BME280;72520;55.762;37.780;2024-02-16T12:08:54;101653.69;;;-6.03;65.85
82784;BME280;72520;55.762;37.780;2024-02-16T12:11:56;101662.09;;;-6.10;66.29
82784;BME280;72520;55.762;37.780;2024-02-16T12:14:59;101666.47;;;-6.09;65.95
82784;BME280;72520;55.762;37.780;2024-02-16T12:18:02;101659.03;;;-5.99;65.95
82784;BME280;72520;55.762;37.780;2024-02-16T12:21:06;101661.91;;;-6.16;66.01
82784;BME280;72520;55.762;37.780;2024-02-16T12:24:11;101664.19;;;-6.26;67.05
82784;BME280;72520;55.762;37.780;2024-02-16T12:27:13;101665.03;;;-6.27;66.56
82784;BME280;72520;55.762;37.780;2024-02-16T12:30:17;101657.75;;;-6.11;66.52
82784;BME280;72520;55.762;37.780;2024-02-16T12:33:19;101656.13;;;-6.35;66.60
82784;BME280;72520;55.762;37.780;2024-02-16T12:36:27;101665.22;;;-6.47;66.75
82784;BME280;72520;55.762;37.780;2024-02-16T12:39:32;101661.69;;;-6.49;67.24
82784;BME280;72520;55.762;37.780;2024-02-16T12:42:37;101672.38;;;-6.40;66.62
82784;BME280;72520;55.762;37.780;2024-02-16T12:45:40;101668.28;;;-6.59;67.25
82784;BME280;72520;55.762;37.780;2024-02-16T12:48:42;101669.81;;;-6.39;66.91
82784;BME280;72520;55.762;37.780;2024-02-16T12:51:46;101673.25;;;-6.40;66.88
82784;BME280;72520;55.762;37.780;2024-02-16T12:54:48;101680.81;;;-6.46;67.22
82784;BME280;72520;55.762;37.780;2024-02-16T12:57:53;101686.22;;;-6.40;67.25
82784;BME280;72520;55.762;37.780;2024-02-16T13:00:55;101684.38;;;-6.42;67.95
82784;BME280;72520;55.762;37.780;2024-02-16T13:03:58;101694.34;;;-6.54;67.61
82784;BME280;72520;55.762;37.780;2024-02-16T13:07:01;101696.34;;;-6.46;67.96
82784;BME280;72520;55.762;37.780;2024-02-16T13:10:04;101693.44;;;-6.55;67.50
82784;BME280;72520;55.762;37.780;2024-02-16T13:13:08;101703.03;;;-6.52;67.15
82784;BME280;72520;55.762;37.780;2024-02-16T13:16:10;101700.97;;;-6.62;67.42
82784;BME280;72520;55.762;37.780;2024-02-16T13:19:12;101695.22;;;-6.54;67.67
82784;BME280;72520;55.762;37.780;2024-02-16T13:22:16;101700.69;;;-6.45;67.45
82784;BME280;72520;55.762;37.780;2024-02-16T13:25:21;101691.25;;;-6.43;67.73
82784;BME280;72520;55.762;37.780;2024-02-16T13:28:23;101693.44;;;-6.55;67.40
82784;BME280;72520;55.762;37.780;2024-02-16T13:31:26;101691.06;;;-6.49;66.89
82784;BME280;72520;55.762;37.780;2024-02-16T13:34:28;101693.81;;;-6.44;67.71
82784;BME280;72520;55.762;37.780;2024-02-16T13:37:41;101691.16;;;-6.46;67.61
82784;BME280;72520;55.762;37.780;2024-02-16T13:40:46;101684.44;;;-6.66;67.50
82784;BME280;72520;55.762;37.780;2024-02-16T13:43:50;101691.44;;;-6.63;67.74
82784;BME280;72520;55.762;37.780;2024-02-16T13:46:54;101688.69;;;-6.68;68.15
82784;BME280;72520;55.762;37.780;2024-02-16T13:49:56;101686.72;;;-6.75;68.20
82784;BME280;72520;55.762;37.780;2024-02-16T13:53:00;101672.28;;;-6.68;67.92
82784;BME280;72520;55.762;37.780;2024-02-16T13:56:03;101674.94;;;-6.67;67.97
82784;BME280;72520;55.762;37.780;2024-02-16T13:59:06;101690.81;;;-6.82;67.82
82784;BME280;72520;55.762;37.780;2024-02-16T14:02:09;101695.81;;;-6.86;67.85
82784;BME280;72520;55.762;37.780;2024-02-16T14:05:16;101692.91;;;-6.70;67.27
82784;BME280;72520;55.762;37.780;2024-02-16T14:08:37;101696.25;;;-6.74;67.40
82784;BME280;72520;55.762;37.780;2024-02-16T14:11:45;101691.97;;;-6.74;67.64
82784;BME280;72520;55.762;37.780;2024-02-16T14:14:47;101682.09;;;-6.84;67.82
82784;BME280;72520;55.762;37.780;2024-02-16T14:17:54;101681.63;;;-6.74;68.31
82784;BME280;72520;55.762;37.780;2024-02-16T14:20:59;101687.44;;;-6.79;68.10
82784;BME280;72520;55.762;37.780;2024-02-16T14:24:03;101682.00;;;-6.87;68.37
82784;BME280;72520;55.762;37.780;2024-02-16T14:27:31;101690.63;;;-6.86;68.44
82784;BME280;72520;55.762;37.780;2024-02-16T14:30:33;101694.22;;;-6.83;68.47
82784;BME280;72520;55.762;37.780;2024-02-16T14:33:40;101688.13;;;-6.85;68.29
82784;BME280;72520;55.762;37.780;2024-02-16T14:36:44;101687.16;;;-6.87;68.08
82784;BME280;72520;55.762;37.780;2024-02-16T14:39:49;101685.56;;;-6.83;68.63
82784;BME280;72520;55.762;37.780;2024-02-16T14:42:52;101680.16;;;-6.91;68.61
82784;BME280;72520;55.762;37.780;2024-02-16T14:45:57;101679.41;;;-6.87;68.70
82784;BME280;72520;55.762;37.780;2024-02-16T14:49:08;101682.25;;;-7.04;68.08
82784;BME280;72520;55.762;37.780;2024-02-16T14:52:12;101690.72;;;-7.08;68.21
82784;BME280;72520;55.762;37.780;2024-02-16T14:55:19;101682.91;;;-7.10;68.63
82784;BME280;72520;55.762;37.780;2024-02-16T14:58:21;101682.88;;;-7.11;68.80
82784;BME280;72520;55.762;37.780;2024-02-16T15:01:23;101679.19;;;-7.18;68.68
82784;BME280;72520;55.762;37.780;2024-02-16T15:04:25;101686.16;;;-7.15;68.93
82784;BME280;72520;55.762;37.780;2024-02-16T15:07:45;101672.63;;;-7.08;68.61
82784;BME280;72520;55.762;37.780;2024-02-16T15:10:48;101687.28;;;-7.07;68.11
82784;BME280;72520;55.762;37.780;2024-02-16T15:13:51;101679.31;;;-7.13;68.11
82784;BME280;72520;55.762;37.780;2024-02-16T15:16:53;101676.53;;;-7.19;68.42
82784;BME280;72520;55.762;37.780;2024-02-16T15:19:55;101671.94;;;-7.27;68.76
82784;BME280;72520;55.762;37.780;2024-02-16T15:22:57;101682.75;;;-7.14;69.06
82784;BME280;72520;55.762;37.780;2024-02-16T15:26:04;101674.53;;;-7.27;68.63
82784;BME280;72520;55.762;37.780;2024-02-16T15:29:09;101674.44;;;-7.30;69.02
82784;BME280;72520;55.762;37.780;2024-02-16T15:32:12;101676.81;;;-7.36;68.83
82784;BME280;72520;55.762;37.780;2024-02-16T15:35:14;101681.19;;;-7.33;69.03
82784;BME280;72520;55.762;37.780;2024-02-16T15:38:17;101684.78;;;-7.30;69.25
82784;BME280;72520;55.762;37.780;2024-02-16T15:41:21;101678.69;;;-7.32;68.99
82784;BME280;72520;55.762;37.780;2024-02-16T15:44:23;101686.53;;;-7.29;68.71
82784;BME280;72520;55.762;37.780;2024-02-16T15:47:26;101689.34;;;-7.46;69.22
82784;BME280;72520;55.762;37.780;2024-02-16T15:50:28;101680.16;;;-7.38;68.86